仙台空港の過去48時間の天気

仙台空港 (Sendai)

現在時刻: 4/26 20:29 JST (4/26 11:29 UTC) 以下の時間は現地時間です。

過去48時間のMETAR気象情報
時間 風向 風速(m/s) 視程 気温(℃) 湿度(%) 気圧(hPa) 天気現象
26 20:00 西北西 3 10km以上 13 44 1012
26 19:00 西南西 5 10km以上 16 31 1011
26 18:00 南西 4 10km以上 17 36 1010
26 17:00 西南西 4 10km以上 20 30 1010
26 16:38 北西 5 10km以上 20 19 1010
26 16:00 西 7 10km以上 21 17 1009
26 15:41 西南西 6 10km以上 21 18 1009
26 15:00 西北西 6 10km以上 21 18 1009
26 14:00 北西 7 10km以上 21 21 1009
26 13:19 西 8 10km以上 20 24 1009
26 13:00 西北西 7 10km以上 20 24 1009
26 12:01 西北西 9 10km以上 19 30 1009
26 12:00 西北西 10 10km以上 19 28 1009
26 11:00 西北西 11 10km以上 18 32 1008
26 10:26 西北西 8 10km以上 18 37 1009
26 10:00 北西 6 10km以上 16 42 1009
26 09:00 北北西 6 10km以上 14 47 1009
26 08:05 西北西 7 10km以上 14 47 1008
26 08:00 不定 1 10km以上 14 51 1008
26 07:00 北西 5 10km以上 13 54 1007
26 06:00 西北西 5 10km以上 12 58 1006
26 05:30 北西 3 10km以上 12 58 1006
25 21:00 3 10km以上 12 94 1002
25 20:00 不定 1 10km以上 12 94 1001
25 19:00 北東 2 10km以上 13 88 1000
25 18:00 2 10km以上 13 88 999
25 17:00 4 10km以上 13 94 1000
25 16:00 4 10km以上 14 88 999
25 15:00 北北東 4 10km以上 13 94 1000 弱いしゅう雨
25 14:00 北北東 3 4,000m 12 100 1001 弱いしゅう雨 もや
25 13:00 北東 3 7,000m 12 100 1002 弱いしゅう雨
25 12:00 北北東 3 6,000m 11 100 1003 弱いしゅう雨
25 11:00 北北東 2 6,000m 12 94 1004 弱いしゅう雨
25 10:15 北北東 2 10km以上 12 94 1005 弱いしゅう雨
25 10:00 北北東 2 6,000m 11 100 1005 弱いしゅう雨
25 09:00 北北東 2 4,500m 11 100 1005 弱いしゅう雨 もや
25 08:00 北北東 2 2,000m 11 100 1006 弱いしゅう雨 もや
25 07:26 2 2,000m 11 100 1006 弱い雨 もや
25 07:00 北北東 1 2,500m 11 100 1006 弱い雨 もや
25 06:39 北北東 2 2,500m 11 100 1006 弱い雨 もや
25 06:19 北北東 2 4,000m 11 100 1006 弱い雨 もや
25 06:00 2 5,000m 11 100 1006 弱い雨 もや
25 05:30 北東 2 5,000m 11 100 1006 弱い雨 もや
24 21:10 東北東 4 5,000m 12 100 1011 弱い雨 もや
24 21:00 北東 3 5,000m 13 100 1011 弱い雨 もや
RJSS 261100Z 29005KT CAVOK 13/01 Q1012
RJSS 261000Z 25010KT CAVOK 16/M01 Q1011
RJSS 260900Z 23008KT 9999 FEW070 17/02 Q1010
RJSS 260800Z 25008KT CAVOK 20/02 Q1010
RJSS 260738Z 32009KT 9999 FEW050 20/M04 Q1010 RMK 1CU050 A2983
RJSS 260700Z 26014KT 9999 FEW050 SCT/// 21/M05 Q1009
RJSS 260641Z 24011KT 9999 FEW050 BKN/// 21/M04 Q1009 RMK 1CU050 A2981
RJSS 260600Z 30012KT 9999 FEW050 BKN/// 21/M04 Q1009
RJSS 260500Z 31014KT 9999 FEW050 BKN/// 21/M02 Q1009
RJSS 260419Z 27015G26KT 250V310 9999 FEW040 BKN/// 20/M01 Q1009 RMK 1CU040 A2980
RJSS 260400Z 29013KT 9999 FEW040 20/M01 Q1009
RJSS 260301Z 29018G28KT 9999 FEW030 19/01 Q1009 RMK 1CU030 A2981
RJSS 260300Z 29019KT 9999 FEW030 19/00 Q1009
RJSS 260200Z 30021G31KT 9999 FEW030 18/01 Q1008
RJSS 260126Z 30015G25KT 9999 FEW030 SCT050 18/03 Q1009 RMK 1CU030 3CU050 A2980
RJSS 260100Z 32012KT 260V350 9999 FEW030 SCT050 16/03 Q1009
RJSS 260000Z 34012KT 9999 FEW030 BKN050 14/03 Q1009
RJSS 252305Z 29013KT 9999 FEW040 BKN050 14/03 Q1008 RMK 1CU040 5CU050 A2978
RJSS 252300Z VRB02KT 9999 FEW040 BKN050 14/04 Q1008
RJSS 252200Z 32009KT 9999 FEW040 SCT050 13/04 Q1007
RJSS 252100Z 30009KT 270V330 9999 FEW030 12/04 Q1006
RJSS 252030Z 32006KT 280V020 9999 FEW030 12/04 Q1006 RMK 1CU030 A2972
RJSS 251200Z 01006KT 9999 FEW010 12/11 Q1002
RJSS 251100Z VRB02KT 9999 FEW012 SCT030 BKN050 12/11 Q1001
RJSS 251000Z 04003KT 9999 FEW012 SCT030 13/11 Q1000
RJSS 250900Z 36004KT 9999 FEW008 BKN012 13/11 Q0999
RJSS 250800Z 01008KT 9999 FEW008 BKN010 13/12 Q1000
RJSS 250700Z 01008KT 9999 FEW003 BKN010 BKN015 14/12 Q0999
RJSS 250600Z 02008KT 9999 -SHRA FEW003 SCT007 BKN010 13/12 Q1000
RJSS 250500Z 03006KT 4000 -SHRA BR FEW001 BKN003 BKN006 12/12 Q1001
RJSS 250400Z 05006KT 7000 -SHRA FEW001 BKN005 BKN010 12/12 Q1002
RJSS 250300Z 03006KT 350V060 6000 -SHRA FEW001 BKN003 BKN005 11/11 Q1003
RJSS 250200Z 03004KT 350V060 6000 -SHRA FEW002 BKN005 BKN008 12/11 Q1004
RJSS 250115Z 03003KT 350V060 9999 -SHRA FEW002 BKN005 BKN007 12/11 Q1005 RMK 1ST002 5ST005 6ST007 A2968
RJSS 250100Z 02004KT 6000 -SHRA FEW001 SCT003 BKN004 11/11 Q1005
RJSS 250000Z 02004KT 4500 -SHRA BR FEW001 BKN003 BKN006 11/11 Q1005
RJSS 242300Z 02004KT 2000 -SHRA BR FEW001 BKN003 BKN010 11/11 Q1006
RJSS 242226Z 01003KT 2000 -RA BR FEW001 BKN003 BKN006 11/11 Q1006 RMK 1ST001 5ST003 7ST006 A2972
RJSS 242200Z 02002KT 2500 -RA BR FEW001 BKN003 BKN006 11/11 Q1006
RJSS 242139Z 02003KT 2500 -RA BR FEW001 BKN003 BKN006 11/11 Q1006 RMK 1ST001 5ST003 7ST006 A2973
RJSS 242119Z 02003KT 4000 -RA BR FEW001 BKN003 BKN006 11/11 Q1006 RMK 1ST001 5ST003 7ST006 A2973
RJSS 242100Z 35003KT 5000 -RA BR FEW001 SCT003 BKN006 11/11 Q1006
RJSS 242030Z 04003KT 5000 -RA BR FEW001 SCT003 BKN006 11/11 Q1006 RMK 1ST001 3ST003 7ST006 A2972
RJSS 241210Z 06007KT 5000 -RA BR FEW001 SCT003 BKN006 12/12 Q1011 RMK 1ST001 4ST003 7ST006 A2985
RJSS 241200Z 05006KT 5000 -RA BR FEW001 BKN003 BKN006 13/13 Q1011